Tiempo atmosférico en la estación meteorológica de Sta.Cruz de Tenerife, Santa Cruz de Tenerife (35 m.)



Fecha
DESCASC
Temp. máxima en grados centígrados (hora)
DESCASC
Temp. mínima en grados centígrados (hora)
DESCASC
Temp. media en grados centígrados
DESCASC
Racha de viento máxima en m/sg (hora)
DESCASC
Velocidad máxima media en intervalos de 10 minutos(hora)
DESCASC
Precipitaciones diarias en mm
DESCASC
Precipitaciones de 00:00 a 06:00 en mm
DESCASC
Precipitaciones de 06:00 a 12:00 en mm
DESCASC
Precipitaciones de 12:00 a 18:00 en mm
DESCASC
Precipitaciones de 18:00 a 24:00 en mm
DESCASC
14-12-2019 21.5 (13:40) 17.3 (08:10) 19.4 7.22 (16:00) 4.17 (13:50) 0 0 0 0 0
13-12-2019 20.4 (15:10) 17.4 (05:10) 18.9 8.89 (05:50) 4.44 (14:00) 0 0 0 0 0
12-12-2019 21.3 (12:20) 16.3 (04:40) 18.8 10 (12:00) 5 (12:20) 0 0 0 0 0
11-12-2019 22.1 (14:10) 17.8 (00:00) 19.9 11.11 (12:20) 6.39 (11:40) 0 0 0 0 0
10-12-2019 22.8 (16:00) 16 (05:20) 19.4 8.89 (14:00) 5.28 (14:00) 0 0 0 0 0
09-12-2019 22.1 (14:40) 17.1 (23:59) 19.6 8.89 (15:40) 5.28 (15:20) 0 0 0 0 0
08-12-2019 22.6 (14:40) 17.9 (00:00) 20.3 8.33 (15:50) 4.17 (15:00) 0 0 0 0 0
07-12-2019 22.2 (13:20) 17.2 (00:00) 19.7 8.89 (03:10) 5.28 (03:10) 1.2 1 0.2 0 0
06-12-2019 22.4 (15:30) 17.3 (00:00) 19.8 11.94 (16:30) 5.56 (04:20) 2.2 0.8 0.2 0 1.2
05-12-2019 20.8 (14:20) 15.5 (00:00) 18.1 15.28 (14:50) 7.78 (14:50) 22 1.6 1.4 1.4 17.6
04-12-2019 22.5 (13:30) 17.6 (07:10) 20.1 11.67 (16:40) 5.56 (14:00) 0.4 0 0 0 0.4
03-12-2019 22.7 (13:10) 17 (00:00) 19.9 11.39 (13:30) 6.11 (13:20) 1.2 0.4 0.8 0 0
02-12-2019 24.3 (13:10) 17.2 (00:00) 20.8 10.56 (12:40) 6.39 (13:40) 0 0 0 0 0
01-12-2019 23.6 (15:20) 17.1 (00:00) 20.4 10.83 (14:00) 6.11 (14:00) 0 0 0 0 0
30-11-2019 23.9 (13:00) 18 (00:00) 20.9 10 (15:00) 5.56 (14:10) 0 0 0 0 0
29-11-2019 23.9 (15:10) 17.9 (00:00) 20.9 6.94 (16:50) 4.17 (16:00) 0 0 0 0 0
28-11-2019 22.3 (12:50) 17.5 (06:30) 19.9 7.22 (16:20) 4.17 (14:30) 0 0 0 0 0
27-11-2019 22.8 (13:30) 17.3 (00:00) 20 10.83 (14:20) 5.56 (14:10) 0 0 0 0 0
26-11-2019 24.5 (16:10) 17.9 (00:00) 21.2 7.78 (13:10) 5 (13:20) 0 0 0 0 0
25-11-2019 23.3 (13:00) 18.5 (08:30) 20.9 8.89 (14:10) 5.28 (14:20) 0 0 0 0 0
24-11-2019 24.1 (15:10) 19.3 (00:00) 21.7 7.78 (14:50) 4.17 (13:20) 0 0 0 0 0
23-11-2019 26 (15:00) 20.5 (00:00) 23.3 10.28 (11:00) 6.39 (11:10) 0 0 0 0 0
22-11-2019 26 (13:40) 20.1 (00:00) 23.1 9.17 (10:20) 5.28 (14:50) 0 0 0 0 0
21-11-2019 24.8 (13:50) 19.2 (00:00) 22 6.67 (13:20) 3.61 (11:30) 0 0 0 0 0
20-11-2019 23.5 (13:50) 17.9 (07:50) 20.7 6.67 (02:10) 3.89 (02:10) 0 0 0 0 0
19-11-2019 24.2 (15:10) 17.9 (00:00) 21.1 11.39 (10:20) 6.39 (10:20) 0 0 0 0 0
18-11-2019 22 (12:10) 18.5 (00:00) 20.3 8.33 (13:40) 4.72 (12:40) 0 0 0 0 0
17-11-2019 21.1 (12:20) 17 (00:00) 19.1 8.89 (12:40) 4.72 (12:40) 0 0 0 0 0
16-11-2019 21.7 (12:20) 17.1 (00:00) 19.4 13.61 (10:00) 6.67 (11:30) 1.8 1.8 0 0 0
15-11-2019 21.4 (16:10) 18.2 (00:00) 19.8 12.78 (11:20) 6.67 (11:20) 2.2 0.2 1.4 0.6 0

Gráficas

Temp. máximas Temp. mínimas Temp. medias Precipitaciones Rachas de viento máximas Velocidades máximas media en intervalos de 10 minutos

Datos horarios

Fecha y hora oficial Temperatura (ºC) Velocidad del viento (km/h) Dirección del viento Racha (km/h) Dirección de racha Precipitación (mm) Presión (hPa) Tendencia (hPa) Humedad (%)
2019-12-14 23:00:00 18.9 4 Oeste 12 Oeste 0 1015.2 -0.1 64
2019-12-14 22:00:00 18.8 6 Noroeste 12 Norte 0 1015.1 0.3 64
2019-12-14 21:00:00 19.5 4 Nordeste 16 Nordeste 0 1015 0.1 59
2019-12-14 20:00:00 19.8 4 Norte 13 Norte 0 1015.3 0.6 63
2019-12-14 19:00:00 20.2 8 Norte 17 Norte 0 1014.8 0.3 61
2019-12-14 18:00:00 20.3 6 Nordeste 19 Nordeste 0 1014.9 0.4 60
2019-12-14 17:00:00 20.6 10 Nordeste 22 Este 0 1014.7 -0.4 59
2019-12-14 16:00:00 20.8 14 Este 26 Este 0 1014.5 -1.6 62
2019-12-14 15:00:00 20.9 9 Nordeste 22 Este 0 1014.5 -2.2 58
2019-12-14 14:00:00 21 15 Este 22 Este 0 1015.1 -2.1 65
2019-12-14 13:00:00 21 13 Este 23 Este 0 1016.1 -1 66
2019-12-14 12:00:00 21 5 Nordeste 13 Nordeste 0 1016.7 -0.5 61
2019-12-14 11:00:00 20.5 7 Este 13 Noroeste 0 1017.2 0.2 67
2019-12-14 10:00:00 19.8 3 Sudeste 9 Sudeste 0 1017.1 0.1 71
2019-12-14 09:00:00 18.3 5 Este 7 Este 0 1017.2 0.7 72
2019-12-14 08:00:00 17.4 5 Oeste 12 Oeste 0 1017 0.4 75
2019-12-14 07:00:00 17.7 3 Noroeste 14 Nordeste 0 1017 0.1 76
2019-12-14 06:00:00 17.7 7 Oeste 14 Noroeste 0 1016.5 -0.7 71
2019-12-14 05:00:00 17.5 6 Oeste 11 Oeste 0 1016.6 -1.1 73
2019-12-14 04:00:00 17.7 3 Oeste 6 Noroeste 0 1016.9 -1.2 75
2019-12-14 03:00:00 17.9 5 Oeste 24 Este 0 1017.2 -1.5 74
2019-12-14 02:00:00 18.7 12 Este 24 Nordeste 0 1017.7 -1.5 72
2019-12-14 01:00:00 18.8 8 Nordeste 16 Nordeste 0 1018.1 -1.1 59
2019-12-14 00:00:00 18.8 6 Nordeste 19 Nordeste 0 1018.7 -0.3 63
2019-12-13 23:00:00 18.8 7 Nordeste 26 Norte 0 1019.2 0.3 59
2019-12-13 22:00:00 18.8 6 Norte 15 Este 0 1019.2 0.5 67
2019-12-13 21:00:00 18.6 7 Norte 24 Norte 0 1019 0.2 68
2019-12-13 20:00:00 19.1 7 Nordeste 19 Norte 0 1018.9 0.1 60
2019-12-13 19:00:00 19 9 Norte 28 Nordeste 0 1018.7 0 58
2019-12-13 18:00:00 19.3 8 Norte 22 Norte 0 1018.8 -0.1 59
2019-12-13 17:00:00 19.5 14 Norte 27 Nordeste 0 1018.8 -0.9 54
2019-12-13 16:00:00 19.9 12 Norte 25 Norte 0 1018.7 -2.5 58
2019-12-13 15:00:00 20.1 14 Norte 27 Norte 0 1018.9 -3.3 55
2019-12-13 14:00:00 20 16 Norte 30 Norte 0 1019.7 -3.1 56
2019-12-13 13:00:00 19.9 9 Nordeste 25 Nordeste 0 1021.2 -1.3 56
2019-12-13 12:00:00 19.5 12 Nordeste 30 Este 0 1022.2 0 58
2019-12-13 11:00:00 18.8 12 Nordeste 30 Nordeste 0 1022.8 0.8 54
2019-12-13 10:00:00 18.7 10 Nordeste 23 Norte 0 1022.5 0.7 61
2019-12-13 09:00:00 18 8 Nordeste 18 Norte 0 1022.2 0.6 60
2019-12-13 08:00:00 17.6 10 Norte 27 Nordeste 0 1022 0.3 58
2019-12-13 07:00:00 17.6 8 Nordeste 26 Norte 0 1021.8 -0.2 60
2019-12-13 06:00:00 17.6 12 Nordeste 32 Nordeste 0 1021.6 -0.5 60
2019-12-13 05:00:00 17.5 8 Nordeste 25 Nordeste 0 1021.7 -0.8 60
2019-12-13 04:00:00 17.7 9 Nordeste 20 Nordeste 0 1022 -0.8 58
2019-12-13 03:00:00 17.9 8 Nordeste 19 Norte 0 1022.1 -1.2 61
2019-12-13 02:00:00 18 10 Nordeste 27 Nordeste 0 1022.5 -1 58
2019-12-13 01:00:00 18.1 6 Nordeste 26 Nordeste 0 1022.8 -0.5 57
2019-12-13 00:00:00 18.2 9 Norte 22 Nordeste 0 1023.3 0.2 57
2019-12-12 23:00:00 18.2 11 Norte 30 Nordeste 0 1023.5 0.8 55
2019-12-12 22:00:00 18.3 13 Norte 32 Nordeste 0 1023.3 1.1 57
2019-12-12 21:00:00 18.4 12 Nordeste 28 Nordeste 0 1023.1 1.4 58
2019-12-12 20:00:00 18.5 11 Nordeste 24 Nordeste 0 1022.7 1.4 64
2019-12-12 19:00:00 18.7 10 Nordeste 30 Nordeste 0 1022.2 0.9 61
2019-12-12 18:00:00 19 13 Nordeste 35 Norte 0 1021.7 0.5 64
2019-12-12 17:00:00 19.8 9 Nordeste 21 Este 0 1021.3 -0.3 65
2019-12-12 16:00:00 20.3 8 Nordeste 24 Este 0 1021.3 -1.1 65
2019-12-12 15:00:00 20.8 10 Este 19 Este 0 1021.2 -1.9 66
2019-12-12 14:00:00 20.2 6 Nordeste 28 Este 0 1021.6 -1.8 72
2019-12-12 13:00:00 20.8 13 Este 31 Este 0 1022.4 -1 68
2019-12-12 12:00:00 20.5 18 Este 36 Este 0 1023.1 0.3 69
2019-12-12 11:00:00 20.7 11 Este 30 Este 0 1023.4 1.5 69
2019-12-12 10:00:00 19.7 6 Este 17 Nordeste 0 1023.4 1.6 70
2019-12-12 09:00:00 19 5 Norte 12 Nordeste 0 1022.8 1.4 69
2019-12-12 08:00:00 18.3 8 Nordeste 18 Norte 0 1021.9 0.7 66
2019-12-12 07:00:00 17.9 5 Noroeste 21 Nordeste 0 1021.8 0.5 66
2019-12-12 06:00:00 18.1 7 Norte 26 Nordeste 0 1021.4 -0.4 66
2019-12-12 05:00:00 16.7 8 Norte 25 Nordeste 0 1021.2 -0.8 70
2019-12-12 04:00:00 16.4 7 Oeste 17 Oeste 0 1021.3 -1.1 70
2019-12-12 03:00:00 17.1 8 Oeste 14 Oeste 0 1021.8 -0.8 68
2019-12-12 02:00:00 18.2 7 Nordeste 18 Norte 0 1022 -0.7 65
2019-12-12 01:00:00 18.4 7 Nordeste 27 Nordeste 0 1022.4 0.1 65
2019-12-12 00:00:00 18.6 11 Norte 25 Norte 0 1022.6 0.3 66
2019-12-11 23:00:00 17.8 8 Norte 17 Norte 0 1022.7 0.7 67
2019-12-11 22:00:00 18.6 8 Nordeste 21 Nordeste 0 1022.3 0.8 64
2019-12-11 21:00:00 18.6 11 Nordeste 20 Nordeste 0 1022.3 1.1 63
2019-12-11 20:00:00 18.6 9 Norte 24 Nordeste 0 1022 1.2 62
2019-12-11 19:00:00 18.8 9 Norte 27 Norte 0 1021.5 1 62
2019-12-11 18:00:00 19.3 11 Nordeste 32 Norte 0 1021.2 0.7 63
2019-12-11 17:00:00 20.3 14 Nordeste 30 Este 0 1020.8 0 60
2019-12-11 16:00:00 20.6 15 Nordeste 24 Nordeste 0 1020.5 -1.1 63
2019-12-11 15:00:00 20.7 15 Este 32 Este 0 1020.5 -2.1 65
2019-12-11 14:00:00 22 18 Este 33 Este 0 1020.8 -2.3 61
2019-12-11 13:00:00 21 20 Este 40 Este 0 1021.6 -1.2 66
2019-12-11 12:00:00 20.7 22 Este 38 Este 0 1022.6 0.4 70
2019-12-11 11:00:00 20.3 19 Este 35 Este 0 1023.1 1.6 72
2019-12-11 10:00:00 20.3 15 Este 27 Este 0 1022.8 1.9 74
2019-12-11 09:00:00 19.7 6 Este 23 Nordeste 0 1022.2 1.6 70
2019-12-11 08:00:00 19.5 10 Este 24 Este 0 1021.5 1.1 74
2019-12-11 07:00:00 19.5 9 Nordeste 18 Nordeste 0 1020.9 0.6 63
2019-12-11 06:00:00 19.6 5 Norte 19 Nordeste 0 1020.6 -0.1 68
2019-12-11 05:00:00 19.7 5 Nordeste 17 Norte 0 1020.4 -0.6 69
2019-12-11 04:00:00 19.6 7 Norte 19 Nordeste 0 1020.3 -1.2 69
2019-12-11 03:00:00 19.6 5 Nordeste 15 Norte 0 1020.7 -1 70
2019-12-11 02:00:00 19.6 8 Nordeste 17 Nordeste 0 1021 -0.5 70
2019-12-11 01:00:00 19.4 6 Nordeste 14 Nordeste 0 1021.5 0.4 73
2019-12-11 00:00:00 19.6 9 Nordeste 22 Nordeste 0 1021.7 1 73
2019-12-10 23:00:00 19.9 5 Nordeste 17 Este 0 1021.5 1.1 70
2019-12-10 22:00:00 19.8 6 Nordeste 17 Nordeste 0 1021.1 1.2 70
2019-12-10 21:00:00 19.6 6 Nordeste 14 Nordeste 0 1020.7 1 70
2019-12-10 20:00:00 19.3 6 Nordeste 17 Nordeste 0 1020.4 0.9 68
2019-12-10 19:00:00 19.7 7 Norte 21 Este 0 1019.9 0.5 67
2019-12-10 18:00:00 20.4 6 Nordeste 20 Nordeste 0 1019.7 0 66
2019-12-10 17:00:00 21.1 10 Nordeste 25 Este 0 1019.5 -0.8 62
2019-12-10 16:00:00 22.8 8 Nordeste 29 Este 0 1019.4 -1.9 57
2019-12-10 15:00:00 22.2 12 Este 29 Este 0 1019.7 -2.2 63
2019-12-10 14:00:00 22.1 19 Este 32 Este 0 1020.3 -2 63
2019-12-10 13:00:00 21.9 16 Este 29 Este 0 1021.3 -1 63
2019-12-10 12:00:00 20.8 17 Este 31 Este 0 1021.9 0.1 65
2019-12-10 11:00:00 20.3 15 Este 25 Este 0 1022.3 0.8 68
2019-12-10 10:00:00 19.5 7 Este 16 Este 0 1022.3 1.3 69
2019-12-10 09:00:00 17.7 4 Noroeste 10 Noroeste 0 1021.8 0.9 71
2019-12-10 08:00:00 16.4 6 Oeste 12 Oeste 0 1021.5 0.7 74
2019-12-10 07:00:00 16.3 4 Oeste 10 Oeste 0 1021 -0.1 74
2019-12-10 06:00:00 16.1 6 Oeste 12 Oeste 0 1020.9 -0.5 74
2019-12-10 05:00:00 16.1 7 Oeste 11 Oeste 0 1020.8 -0.8 74
2019-12-10 04:00:00 16.5 5 Oeste 9 Norte 0 1021.1 -1 72
2019-12-10 03:00:00 16.5 5 Noroeste 9 Noroeste 0 1021.4 -1.1 72
2019-12-10 02:00:00 16.7 5 Noroeste 9 Norte 0 1021.6 -1.1 71
2019-12-10 01:00:00 16.6 5 Oeste 11 Oeste 0 1022.1 -0.6 72
2019-12-10 00:00:00 17.1 4 Noroeste 10 Norte 0 1022.5 0.2 69
2019-12-09 23:00:00 17.3 4 Oeste 13 Oeste 0 1022.7 0.8 69
2019-12-09 22:00:00 17.5 5 Noroeste 13 Norte 0 1022.7 1.3 68
2019-12-09 21:00:00 18.3 5 Norte 14 Nordeste 0 1022.3 1.3 64
2019-12-09 20:00:00 18.6 7 Nordeste 20 Nordeste 0 1021.9 1.2 62
2019-12-09 19:00:00 18.9 7 Nordeste 19 Norte 0 1021.4 0.6 62
2019-12-09 18:00:00 19.6 9 Norte 26 Este 0 1021 -0.1 60
2019-12-09 17:00:00 20.2 12 Este 30 Este 0 1020.7 -0.7 65
2019-12-09 16:00:00 21.2 17 Este 32 Nordeste 0 1020.8 -1.7 62
2019-12-09 15:00:00 21.6 16 Este 28 Este 0 1021.1 -2.3 62
2019-12-09 14:00:00 21.7 16 Este 30 Este 0 1021.4 -2.3 59
2019-12-09 13:00:00 21.6 16 Este 31 Este 0 1022.5 -1.1 61
2019-12-09 12:00:00 20.8 14 Este 28 Este 0 1023.4 0.5 61
2019-12-09 11:00:00 20.2 14 Este 29 Este 0 1023.7 1.2 62
2019-12-09 10:00:00 19.7 14 Este 26 Este 0 1023.6 1.7 65
2019-12-09 09:00:00 18.9 8 Nordeste 15 Nordeste 0 1022.9 1.5 65
2019-12-09 08:00:00 17.9 5 Nordeste 18 Este 0 1022.5 1 68
2019-12-09 07:00:00 18.4 9 Este 21 Este 0 1021.9 0.3 69
2019-12-09 06:00:00 17.8 4 Oeste 18 Nordeste 0 1021.4 -0.4 68
2019-12-09 05:00:00 17.7 4 Norte 12 Nordeste 0 1021.5 -0.5 67
2019-12-09 04:00:00 18 5 Nordeste 16 Este 0 1021.6 -0.6 67
2019-12-09 03:00:00 18.1 3 Nordeste 14 Norte 0 1021.8 -0.9 65
2019-12-09 02:00:00 18 6 Norte 17 Norte 0 1022 -0.6 65
2019-12-09 01:00:00 18.2 4 Norte 21 Nordeste 0 1022.2 -0.1 65
2019-12-09 00:00:00 18.4 3 Norte 22 Nordeste 0 1022.7 0.9 63
2019-12-08 23:00:00 18.9 8 Norte 26 Nordeste 0 1022.6 1.2 61
2019-12-08 22:00:00 19.1 9 Nordeste 25 Nordeste 0 1022.3 1.4 63
2019-12-08 21:00:00 19.1 9 Norte 24 Norte 0 1021.8 1.4 62
2019-12-08 20:00:00 19.2 11 Norte 23 Nordeste 0 1021.4 1.4 63
2019-12-08 19:00:00 19.6 11 Nordeste 21 Nordeste 0 1020.9 1.1 61
2019-12-08 18:00:00 19.9 11 Norte 28 Nordeste 0 1020.4 0.5 61
2019-12-08 17:00:00 20.5 12 Norte 28 Norte 0 1020 -0.3 59
2019-12-08 16:00:00 21 12 Nordeste 30 Norte 0 1019.8 -1.4 58
2019-12-08 15:00:00 21.9 15 Norte 29 Norte 0 1019.9 -2 55
2019-12-08 14:00:00 21.6 13 Nordeste 25 Nordeste 0 1020.3 -2.1 56
2019-12-08 13:00:00 21.8 12 Nordeste 26 Nordeste 0 1021.2 -0.9 54
2019-12-08 12:00:00 21 11 Nordeste 27 Norte 0 1021.9 0.3 57
2019-12-08 11:00:00 20.8 12 Nordeste 30 Nordeste 0 1022.4 1.4 56
2019-12-08 10:00:00 20.2 8 Nordeste 25 Norte 0 1022.1 1.6 63
2019-12-08 09:00:00 19 8 Nordeste 19 Nordeste 0 1021.6 1.7 62
2019-12-08 08:00:00 18.1 9 Norte 21 Norte 0 1021 1.2 66
2019-12-08 07:00:00 18 5 Norte 12 Norte 0 1020.5 0.5 68
2019-12-08 06:00:00 18.4 10 Norte 25 Norte 0 1019.9 -0.2 62
2019-12-08 05:00:00 18.5 11 Nordeste 26 Norte 0 1019.8 -0.6 62
2019-12-08 04:00:00 18.4 8 Nordeste 18 Norte 0 1020 -0.8 65
2019-12-08 03:00:00 18.7 8 Norte 25 Nordeste 0 1020.1 -0.9 65
2019-12-08 02:00:00 18.6 5 Norte 12 Este 0 1020.4 -0.7 68
2019-12-08 01:00:00 19 7 Nordeste 18 Norte 0 1020.8 -0.1 65
2019-12-08 00:00:00 19.2 10 Nordeste 19 Nordeste 0 1021 0.6 64
2019-12-07 23:00:00 19.3 8 Norte 20 Norte 0 1021.1 1.5 63
2019-12-07 22:00:00 19.4 8 Nordeste 24 Norte 0 1020.9 1.8 64
2019-12-07 21:00:00 19.4 9 Nordeste 22 Nordeste 0 1020.4 2.1 65
2019-12-07 20:00:00 19.5 11 Norte 26 Norte 0 1019.6 1.8 63
2019-12-07 19:00:00 19.5 7 Norte 22 Nordeste 0 1019.1 1.4 63
2019-12-07 18:00:00 20 11 Norte 24 Norte 0 1018.3 0.8 62
2019-12-07 17:00:00 20.7 11 Norte 23 Nordeste 0 1017.8 0.1 61
2019-12-07 16:00:00 21.4 13 Norte 28 Norte 0 1017.7 -0.6 59
2019-12-07 15:00:00 21.8 14 Norte 27 Nordeste 0 1017.5 -1.3 58
2019-12-07 14:00:00 21.5 12 Norte 24 Norte 0 1017.7 -1.4 60
2019-12-07 13:00:00 21.5 11 Este 26 Norte 0 1018.3 -0.3 59
2019-12-07 12:00:00 21.2 13 Nordeste 28 Nordeste 0 1018.8 0.8 61
2019-12-07 11:00:00 20.5 10 Nordeste 23 Norte 0.2 1019.1 1.7 67
2019-12-07 10:00:00 19.5 11 Norte 30 Norte 0 1018.6 1.8 66
2019-12-07 09:00:00 19.3 8 Norte 21 Norte 0 1018 1.9 66
2019-12-07 08:00:00 18.2 7 Norte 26 Norte 0 1017.4 1.4 67
2019-12-07 07:00:00 18.1 13 Norte 26 Norte 0 1016.8 0.9 67
2019-12-07 06:00:00 17.7 6 Nordeste 16 Norte 0.2 1016.1 0.7 72
2019-12-07 05:00:00 17.3 4 Nordeste 23 Este 0.8 1016 0.5 81
2019-12-07 04:00:00 18.8 6 Nordeste 32 Noroeste 0 1015.9 0.4 66
2019-12-07 03:00:00 18.7 17 Norte 30 Noroeste 0 1015.4 -0.2 66
2019-12-07 02:00:00 18.5 10 Norte 22 Norte 0 1015.5 0.2 68
2019-12-07 01:00:00 19 11 Norte 24 Norte 0 1015.5 0.5 65
2019-12-07 00:00:00 19.3 11 Norte 28 Norte 0 1015.6 0.5 61
2019-12-06 23:00:00 19.2 14 Norte 36 Norte 0 1015.3 1.1 64
2019-12-06 22:00:00 18.7 12 Norte 30 Nordeste 0 1015 1.2 68
2019-12-06 21:00:00 18.5 14 Norte 37 Norte 0.8 1015.1 1.9 67
2019-12-06 20:00:00 18.6 12 Noroeste 30 Noroeste 0.4 1014.2 1.3 68
2019-12-06 19:00:00 19.6 15 Noroeste 31 Norte 0 1013.8 1.3 57
2019-12-06 18:00:00 19.8 10 Norte 29 Noroeste 0 1013.2 0.7 58
2019-12-06 17:00:00 20.6 18 Noroeste 43 Noroeste 0 1012.9 0.4 55
2019-12-06 16:00:00 21.7 12 Norte 31 Norte 0 1012.5 -0.3 50
2019-12-06 15:00:00 21.1 12 Norte 32 Norte 0 1012.5 -1 55
2019-12-06 14:00:00 20.4 10 Noroeste 26 Nordeste 0 1012.5 -1.3 61
2019-12-06 13:00:00 21 12 Norte 23 Norte 0 1012.8 -0.7 56
2019-12-06 12:00:00 21.5 7 Noroeste 38 Norte 0 1013.5 0.9 55
2019-12-06 11:00:00 20.8 9 Norte 28 Noroeste 0 1013.8 1.9 56
2019-12-06 10:00:00 20.3 7 Nordeste 19 Nordeste 0 1013.5 2.1 56
2019-12-06 09:00:00 19.8 9 Oeste 19 Oeste 0 1012.6 1.8 56
2019-12-06 08:00:00 18.5 8 Noroeste 15 Norte 0 1011.9 1.4 62
2019-12-06 07:00:00 18.2 7 Norte 28 Norte 0.2 1011.4 1.1 64
2019-12-06 06:00:00 18.7 17 Noroeste 35 Noroeste 0 1010.8 0.7 58
2019-12-06 05:00:00 18.6 13 Noroeste 42 Noroeste 0 1010.5 0.3 61
2019-12-06 04:00:00 18.3 15 Noroeste 32 Norte 0 1010.3 0 62
2019-12-06 03:00:00 17.9 8 Oeste 32 Norte 0 1010.1 -0.6 66
2019-12-06 02:00:00 18 10 Noroeste 24 Noroeste 0 1010.2 -0.3 65
2019-12-06 01:00:00 17.8 12 Norte 35 Noroeste 0.8 1010.3 0 69
2019-12-06 00:00:00 17.3 13 Noroeste 34 Norte 0.2 1010.7 0.6 72
2019-12-05 23:00:00 15.8 5 Nordeste 47 Nordeste 13.8 1010.5 1 86
2019-12-05 22:00:00 17.8 11 Noroeste 41 Noroeste 0.8 1010.3 1.4 66
2019-12-05 21:00:00 17.8 18 Norte 39 Noroeste 0.2 1010.1 1.4 67
2019-12-05 20:00:00 17.1 14 Norte 36 Norte 2 1009.5 1.1 72
2019-12-05 19:00:00 17.4 23 Noroeste 40 Noroeste 0.6 1008.9 1 61
2019-12-05 18:00:00 18.9 17 Norte 38 Noroeste 0 1008.7 1 57
2019-12-05 17:00:00 19.2 15 Norte 52 Noroeste 0 1008.4 0.4 59
2019-12-05 16:00:00 20.3 18 Noroeste 54 Norte 0 1007.9 -1.3 52
2019-12-05 15:00:00 20.5 23 Norte 55 Noroeste 0 1007.7 -2.6 50
2019-12-05 14:00:00 20 17 Noroeste 51 Noroeste 0.4 1008 -2.2 57
2019-12-05 13:00:00 18.3 18 Norte 48 Noroeste 1 1009.2 -1 67
2019-12-05 12:00:00 18.5 17 Norte 46 Noroeste 1 1010.3 0.4 70
2019-12-05 11:00:00 19.6 12 Noroeste 44 Noroeste 0 1010.2 0.9 58
2019-12-05 10:00:00 19.1 14 Noroeste 40 Noroeste 0 1010.2 1.3 60
2019-12-05 09:00:00 18.2 22 Noroeste 50 Noroeste 0.4 1009.9 1.1 61
2019-12-05 08:00:00 18.5 21 Noroeste 47 Norte 0 1009.3 0.4 54
2019-12-05 07:00:00 18.3 18 Noroeste 33 Noroeste 0 1008.9 -0.3 54
2019-12-05 06:00:00 18 12 Norte 32 Noroeste 0 1008.8 -0.4 60
2019-12-05 05:00:00 18.1 18 Norte 40 Norte 0 1008.9 -0.5 56
2019-12-05 04:00:00 18.1 18 Noroeste 43 Norte 0 1009.2 -0.6 65
2019-12-05 03:00:00 17.4 21 Norte 42 Noroeste 0.2 1009.2 -1.5 67
2019-12-05 02:00:00 17.2 6 Sudeste 38 Noroeste 0.6 1009.4 -1.2 83
2019-12-05 01:00:00 17.7 4 Sudeste 23 Noroeste 0.8 1009.8 -1.6 90
2019-12-05 00:00:00 18.1 7 Oeste 22 Noroeste 0.4 1010.7 -1.1 82
2019-12-04 23:00:00 19.7 8 Oeste 19 Sudoeste 0 1010.6 -1.1 62
2019-12-04 22:00:00 19.4 7 Oeste 33 Oeste 0 1011.4 -0.4 66
2019-12-04 21:00:00 19.3 12 Oeste 29 Oeste 0 1011.8 0.3 69
2019-12-04 20:00:00 19.6 12 Noroeste 30 Noroeste 0 1011.7 0 65
2019-12-04 19:00:00 19.7 11 Noroeste 32 Oeste 0 1011.8 -0.2 61
2019-12-04 18:00:00 19.9 14 Noroeste 32 Norte 0 1011.5 0.4 60
2019-12-04 17:00:00 20.5 12 Noroeste 42 Norte 0 1011.7 -0.5 57
2019-12-04 16:00:00 21.5 17 Noroeste 35 Noroeste 0 1012 -1.1 55
2019-12-04 15:00:00 22.1 20 Oeste 41 Oeste 0 1011.1 -3.4 53
2019-12-04 14:00:00 21.4 20 Noroeste 34 Noroeste 0 1012.2 -2.8 52
2019-12-04 13:00:00 22.3 20 Noroeste 32 Norte 0 1013.1 -2 46
2019-12-04 12:00:00 21.9 13 Noroeste 31 Oeste 0 1014.5 0 47
2019-12-04 11:00:00 20.8 8 Noroeste 24 Noroeste 0 1015 1 50
2019-12-04 10:00:00 19.8 10 Norte 24 Oeste 0 1015.1 1.1 54
2019-12-04 09:00:00 18.6 3 Norte 9 Oeste 0 1014.5 1.3 63
2019-12-04 08:00:00 17.8 4 Oeste 12 Oeste 0 1014 0.8 66
2019-12-04 07:00:00 17.7 8 Oeste 11 Oeste 0 1014 0.6 65
2019-12-04 06:00:00 18.4 7 Norte 12 Norte 0 1013.2 -0.4 61
2019-12-04 05:00:00 18.8 7 Noroeste 21 Noroeste 0 1013.2 -0.6 58
2019-12-04 04:00:00 18.9 8 Norte 23 Noroeste 0 1013.4 -0.3 59
2019-12-04 03:00:00 18.7 9 Noroeste 21 Noroeste 0 1013.6 -0.8 60
2019-12-04 02:00:00 18.3 8 Noroeste 20 Norte 0 1013.8 -0.9 63
2019-12-04 01:00:00 18.4 10 Norte 18 Noroeste 0 1013.7 -0.9 64
2019-12-04 00:00:00 18 8 Noroeste 19 Noroeste 0 1014.4 0.4 72
2019-12-03 23:00:00 18.2 9 Norte 23 Norte 0 1014.7 1.3 67
2019-12-03 22:00:00 18.6 12 Norte 27 Norte 0 1014.6 1.8 68
2019-12-03 21:00:00 19.2 9 Norte 24 Noroeste 0 1014 1.8 60
2019-12-03 20:00:00 19.3 10 Noroeste 26 Noroeste 0 1013.4 1.3 59
2019-12-03 19:00:00 19.4 8 Noroeste 19 Noroeste 0 1012.8 1.1 59
2019-12-03 18:00:00 20 10 Norte 17 Noroeste 0 1012.2 0.6 57
2019-12-03 17:00:00 20.7 12 Norte 26 Nordeste 0 1012.1 0.6 52
2019-12-03 16:00:00 22 13 Nordeste 30 Norte 0 1011.7 -0.2 49
2019-12-03 15:00:00 21.4 11 Norte 32 Norte 0 1011.6 -0.8 50
2019-12-03 14:00:00 21.6 15 Norte 41 Noroeste 0 1011.5 -1.1 52
2019-12-03 13:00:00 22.5 11 Norte 38 Norte 0 1011.9 -0.5 44
2019-12-03 12:00:00 21.2 17 Norte 36 Noroeste 0 1012.4 0.4 49
2019-12-03 11:00:00 20.3 9 Norte 26 Noroeste 0 1012.6 1 56
2019-12-03 10:00:00 19.2 8 Noroeste 23 Noroeste 0 1012.4 1.5 64
2019-12-03 09:00:00 18.4 10 Noroeste 32 Noroeste 0 1012 1.9 69
2019-12-03 08:00:00 17.2 9 Norte 16 Norte 0.4 1011.6 1.7 80
2019-12-03 07:00:00 17.6 8 Nordeste 20 Norte 0.4 1010.9 0.9 77
2019-12-03 06:00:00 18.5 8 Norte 22 Noroeste 0 1010.1 0.1 69
2019-12-03 05:00:00 18 9 Noroeste 22 Nordeste 0 1009.9 -0.2 70
2019-12-03 04:00:00 18 11 Noroeste 25 Oeste 0.2 1010 -0.8 72
2019-12-03 03:00:00 17.1 5 Norte 26 Norte 0.2 1010 -1.1 83
2019-12-03 02:00:00 17.7 10 Oeste 24 Noroeste 0 1010.1 -1.1 74
2019-12-03 01:00:00 17.4 12 Noroeste 22 Noroeste 0 1010.8 -0.4 74
2019-12-03 00:00:00 17.2 17 Noroeste 36 Noroeste 0 1011.1 -0.1 78
2019-12-02 23:00:00 18.6 16 Noroeste 34 Noroeste 0 1011.2 0.4 72
2019-12-02 22:00:00 18.6 14 Norte 31 Norte 0 1011.2 0.8 68
2019-12-02 21:00:00 19.3 17 Norte 34 Noroeste 0 1011.2 0.8 68
2019-12-02 20:00:00 19.8 18 Norte 31 Norte 0 1010.8 0.4 61
2019-12-02 19:00:00 20.2 10 Norte 26 Norte 0 1010.4 -0.1 61
2019-12-02 18:00:00 20.3 10 Noroeste 30 Noroeste 0 1010.4 -0.1 57
2019-12-02 17:00:00 21 17 Noroeste 29 Oeste 0 1010.4 -0.4 56
2019-12-02 16:00:00 21.7 13 Norte 26 Norte 0 1010.5 -1.1 53
2019-12-02 15:00:00 22.2 12 Noroeste 35 Norte 0 1010.5 -2 53
2019-12-02 14:00:00 22.2 17 Norte 36 Norte 0 1010.8 -2.4 56
2019-12-02 13:00:00 24.2 13 Noroeste 38 Oeste 0 1011.6 -1.8 51
2019-12-02 12:00:00 22.6 19 Noroeste 36 Noroeste 0 1012.5 -0.6 55
2019-12-02 11:00:00 21.4 14 Noroeste 28 Norte 0 1013.2 0.2 59
2019-12-02 10:00:00 20.8 12 Noroeste 32 Noroeste 0 1013.4 0.8 61
2019-12-02 09:00:00 20.1 10 Noroeste 34 Noroeste 0 1013.1 0.4 64
2019-12-02 08:00:00 19.7 12 Noroeste 27 Noroeste 0 1013 0 68
2019-12-02 07:00:00 19.7 7 Oeste 26 Norte 0 1012.6 -0.7 64
2019-12-02 06:00:00 19.9 11 Norte 28 Norte 0 1012.7 -0.9 64
2019-12-02 05:00:00 19.9 8 Noroeste 20 Norte 0 1013 -0.9 65
2019-12-02 04:00:00 19.7 6 Norte 14 Norte 0 1013.3 -1.1 72
2019-12-02 03:00:00 19.3 7 Norte 21 Noroeste 0 1013.6 -1.3 69
2019-12-02 02:00:00 18.7 7 Noroeste 14 Norte 0 1013.9 -1.2 69
2019-12-02 01:00:00 18.3 6 Noroeste 11 Oeste 0 1014.4 -0.7 69
2019-12-02 00:00:00 17.9 4 Oeste 8 Oeste 0 1014.9 -0.4 70
2019-12-01 23:00:00 18.5 5 Oeste 9 Sudoeste 0 1015.1 -0.3 64
2019-12-01 22:00:00 19.3 2 Oeste 16 Nordeste 0 1015.1 -0.2 64
2019-12-01 21:00:00 19.5 3 Este 15 Nordeste 0 1015.3 0.1 65
2019-12-01 20:00:00 19.9 8 Nordeste 15 Nordeste 0 1015.4 0.4 65
2019-12-01 19:00:00 20.4 9 Nordeste 25 Nordeste 0 1015.3 0.7 63
2019-12-01 18:00:00 20.9 10 Nordeste 30 Nordeste 0 1015.2 0.5 64
2019-12-01 17:00:00 21.7 16 Nordeste 28 Nordeste 0 1015 0.2 60
2019-12-01 16:00:00 23.2 10 Nordeste 30 Nordeste 0 1014.6 -1.1 54
2019-12-01 15:00:00 23.3 17 Este 38 Este 0 1014.7 -2 55
2019-12-01 14:00:00 22.2 22 Este 39 Este 0 1014.8 -2.5 64
2019-12-01 13:00:00 22.3 21 Este 36 Este 0 1015.7 -1.5 67
2019-12-01 12:00:00 21.9 18 Este 33 Este 0 1016.7 -0.1 64
2019-12-01 11:00:00 21.2 18 Este 31 Este 0 1017.3 0.8 69
2019-12-01 10:00:00 20.7 12 Este 22 Este 0 1017.2 1.2 71
2019-12-01 09:00:00 17.8 5 Nordeste 12 Nordeste 0 1016.8 1.4 79
2019-12-01 08:00:00 17.1 8 Oeste 15 Oeste 0 1016.5 1.3 78
2019-12-01 07:00:00 17.4 5 Oeste 14 Oeste 0 1016 0.6 79
2019-12-01 06:00:00 17.5 7 Oeste 21 Oeste 0 1015.4 -0.2 79
2019-12-01 05:00:00 17.5 4 Noroeste 17 Oeste 0 1015.2 -0.6 79
2019-12-01 04:00:00 17.6 10 Oeste 15 Oeste 0 1015.4 -0.4 78
2019-12-01 03:00:00 17.9 9 Oeste 18 Oeste 0 1015.6 -0.5 80
2019-12-01 02:00:00 18.4 13 Oeste 17 Oeste 0 1015.8 -0.4 80
2019-12-01 01:00:00 18.4 12 Oeste 15 Oeste 0 1015.8 -0.3 76
2019-12-01 00:00:00 18.8 10 Oeste 14 Noroeste 0 1016.1 0.1 75
2019-11-30 23:00:00 19.2 6 Oeste 10 Oeste 0 1016.2 0.5 80
2019-11-30 22:00:00 19.6 5 Noroeste 9 Oeste 0 1016.1 0.7 81
2019-11-30 21:00:00 20.3 5 Nordeste 19 Este 0 1016 1 82
2019-11-30 20:00:00 20.5 10 Este 22 Nordeste 0 1015.7 1 83
2019-11-30 19:00:00 20.6 12 Este 22 Este 0 1015.4 0.7 83
2019-11-30 18:00:00 20.9 11 Este 24 Este 0 1015 0.5 82
2019-11-30 17:00:00 21.4 15 Este 28 Nordeste 0 1014.7 -0.1 79
2019-11-30 16:00:00 23 13 Este 33 Este 0 1014.7 -0.4 73
2019-11-30 15:00:00 22.5 19 Este 36 Este 0 1014.5 -1.3 76
2019-11-30 14:00:00 22.9 19 Este 31 Este 0 1014.8 -1.2 74
2019-11-30 13:00:00 23.9 6 Este 24 Nordeste 0 1015.1 -0.6 69
2019-11-30 12:00:00 23.1 8 Este 21 Este 0 1015.8 0.7 68
2019-11-30 11:00:00 22.8 6 Este 14 Nordeste 0 1016 1.3 63
2019-11-30 10:00:00 22.1 3 Este 7 Este 0 1015.7 1.5 62
2019-11-30 09:00:00 21.2 6 Oeste 13 Oeste 0 1015.1 1.3 44
2019-11-30 08:00:00 18.5 6 Oeste 14 Oeste 0 1014.7 1 49
2019-11-30 07:00:00 18.3 7 Oeste 11 Oeste 0 1014.2 0.7 51
2019-11-30 06:00:00 18.1 6 Oeste 11 Noroeste 0 1013.8 0.3 51
2019-11-30 05:00:00 18.4 8 Oeste 13 Oeste 0 1013.7 0 52
2019-11-30 04:00:00 18.5 5 Oeste 12 Oeste 0 1013.5 -0.4 54
2019-11-30 03:00:00 18.5 5 Noroeste 10 Noroeste 0 1013.5 -0.4 59
2019-11-30 02:00:00 18.6 3 Noroeste 15 Oeste 0 1013.7 -0.2 72
2019-11-30 01:00:00 18.6 10 Oeste 13 Oeste 0 1013.9 0.3 73
2019-11-30 00:00:00 18.9 7 Oeste 14 Oeste 0 1013.9 0.6 75
2019-11-29 23:00:00 19.1 8 Oeste 12 Oeste 0 1013.9 1.1 76
2019-11-29 22:00:00 19.6 4 Oeste 9 Oeste 0 1013.6 1.2 81
2019-11-29 21:00:00 20.3 5 Noroeste 9 Noroeste 0 1013.3 1.3 81
2019-11-29 20:00:00 21 5 Este 18 Este 0 1012.8 1.1 80
2019-11-29 19:00:00 21.1 6 Este 17 Este 0 1012.4 0.9 81
2019-11-29 18:00:00 21.2 10 Este 21 Este 0 1012 0.4 83
2019-11-29 17:00:00 21.8 13 Este 25 Este 0 1011.7 -0.2 81
2019-11-29 16:00:00 23.1 15 Este 23 Este 0 1011.5 -1.3 75
2019-11-29 15:00:00 23.5 9 Este 18 Este 0 1011.6 -1.8 73
2019-11-29 14:00:00 23.4 9 Este 20 Este 0 1011.9 -1.7 73
2019-11-29 13:00:00 23.4 11 Este 21 Este 0 1012.8 -0.7 72
2019-11-29 12:00:00 22.7 12 Este 21 Este 0 1013.4 0.4 74
2019-11-29 11:00:00 22 9 Este 16 Nordeste 0 1013.6 1.1 73
2019-11-29 10:00:00 21.4 6 Este 13 Este 0 1013.5 1.5 72
2019-11-29 09:00:00 19.7 3 Sur 14 Oeste 0 1013 1.4 72
2019-11-29 08:00:00 18.2 8 Oeste 13 Oeste 0 1012.5 1.1 68
2019-11-29 07:00:00 17.9 10 Oeste 14 Oeste 0 1012 0.4 68
2019-11-29 06:00:00 18 10 Oeste 14 Oeste 0 1011.6 0 69
2019-11-29 05:00:00 18.2 9 Oeste 14 Oeste 0 1011.4 -0.3 72
2019-11-29 04:00:00 18.4 6 Oeste 14 Oeste 0 1011.6 -0.1 77
2019-11-29 03:00:00 18.7 10 Oeste 14 Oeste 0 1011.6 -0.3 77
2019-11-29 02:00:00 19 7 Oeste 11 Oeste 0 1011.7 -0.4 76
2019-11-29 01:00:00 19.2 7 Oeste 12 Oeste 0 1011.7 -0.3 74
2019-11-29 00:00:00 19.1 3 Oeste 8 Oeste 0 1011.9 0 74
2019-11-28 23:00:00 19.6 4 Noroeste 8 Noroeste 0 1012.1 0.8 76
2019-11-28 22:00:00 19.8 5 Noroeste 10 Noroeste 0 1012 1.3 76
2019-11-28 21:00:00 19.8 4 Noroeste 7 Oeste 0 1011.9 1.2 77
2019-11-28 20:00:00 20.1 3 Este 18 Este 0 1011.3 1.1 75
2019-11-28 19:00:00 20.3 8 Este 19 Nordeste 0 1010.7 0.4 76
2019-11-28 18:00:00 20.4 8 Este 23 Este 0 1010.7 0.3 76
2019-11-28 17:00:00 20.8 10 Este 26 Este 0 1010.2 -0.8 73
2019-11-28 16:00:00 21.4 12 Este 25 Este 0 1010.3 -1.7 71
2019-11-28 15:00:00 21.5 14 Este 24 Este 0 1010.4 -2.6 71
2019-11-28 14:00:00 21.9 13 Este 22 Este 0 1011 -2.5 68
2019-11-28 13:00:00 22.1 11 Este 19 Este 0 1012 -1.4 66
2019-11-28 12:00:00 21.5 10 Este 19 Este 0 1013 0 66
2019-11-28 11:00:00 20.9 10 Este 19 Nordeste 0 1013.5 1 69
2019-11-28 10:00:00 20.4 9 Este 16 Este 0 1013.4 1.5 69
2019-11-28 09:00:00 19.3 5 Nordeste 14 Oeste 0 1013 1.9 74
2019-11-28 08:00:00 18 11 Oeste 16 Oeste 0 1012.5 1.6 77
2019-11-28 07:00:00 17.5 10 Oeste 18 Oeste 0 1011.9 0.7 78
2019-11-28 06:00:00 17.6 12 Oeste 18 Oeste 0 1011.1 -0.3 77
2019-11-28 05:00:00 17.7 11 Oeste 19 Oeste 0 1010.9 -0.9 76
2019-11-28 04:00:00 17.7 9 Oeste 17 Oeste 0 1011.2 -0.9 75
2019-11-28 03:00:00 17.9 10 Oeste 16 Oeste 0 1011.4 -1.2 74
2019-11-28 02:00:00 18.2 8 Oeste 18 Oeste 0 1011.8 -1 72
2019-11-28 01:00:00 18.2 9 Oeste 16 Noroeste 0 1012.1 -0.7 72
2019-11-28 00:00:00 18.3 6 Oeste 12 Oeste 0 1012.6 0.1 73
2019-11-27 23:00:00 18.7 8 Oeste 12 Oeste 0 1012.8 0.8 71
2019-11-27 22:00:00 19.2 8 Oeste 13 Oeste 0 1012.8 1.1 70
2019-11-27 21:00:00 19.7 3 Nordeste 10 Este 0 1012.5 1.3 71
2019-11-27 20:00:00 19.9 4 Oeste 17 Este 0 1012 1.1 69
2019-11-27 19:00:00 20.5 9 Este 22 Este 0 1011.7 0.8 69
2019-11-27 18:00:00 20.7 10 Este 29 Este 0 1011.2 0.2 71
2019-11-27 17:00:00 21.2 15 Este 32 Este 0 1010.9 -0.4 70
2019-11-27 16:00:00 21.9 16 Este 34 Este 0 1010.9 -1.4 66
2019-11-27 15:00:00 22.5 17 Este 39 Este 0 1011 -2.2 64
2019-11-27 14:00:00 22.4 19 Este 35 Este 0 1011.3 -2.4 65
2019-11-27 13:00:00 22.6 17 Este 31 Este 0 1012.3 -1.2 64
2019-11-27 05:00:00 17.7 9 Oeste 13 Oeste 0 1011.4 -0.8 73
2019-11-27 04:00:00 17.8 7 Oeste 11 Oeste 0 1011.5 -1.1 75
2019-11-27 03:00:00 18 3 Noroeste 13 Oeste 0 1012 -1.1 75
2019-11-27 02:00:00 18.4 10 Oeste 13 Oeste 0 1012.2 -1 75
2019-11-27 01:00:00 18.7 6 Oeste 13 Oeste 0 1012.6 -0.5 73
2019-11-27 00:00:00 18.7 8 Oeste 12 Oeste 0 1013.1 0.3 73
2019-11-26 23:00:00 19.2 5 Noroeste 8 Noroeste 0 1013.2 0.5 71
2019-11-26 22:00:00 19.7 5 Nordeste 13 Nordeste 0 1013.1 0.9 70
2019-11-26 21:00:00 19.9 0 Calma 9 Norte 0 1012.8 1.1 68
2019-11-26 20:00:00 20.5 6 Nordeste 16 Norte 0 1012.7 1.3 67
2019-11-26 19:00:00 20.9 8 Nordeste 13 Nordeste 0 1012.2 0.8 64
2019-11-26 18:00:00 21.6 6 Este 13 Este 0 1011.7 0.2 61
2019-11-26 17:00:00 22.7 10 Norte 19 Norte 0 1011.4 -0.4 59
2019-11-26 16:00:00 24.4 6 Norte 17 Nordeste 0 1011.4 -1.4 54
2019-11-26 15:00:00 23.5 6 Nordeste 20 Norte 0 1011.5 -2 59
2019-11-26 14:00:00 23.4 13 Este 28 Este 0 1011.8 -2.1 61
2019-11-26 13:00:00 22.8 17 Este 25 Este 0 1012.8 -1 62
2019-11-26 12:00:00 22.4 14 Este 23 Este 0 1013.5 0.1 64
2019-11-26 11:00:00 22.2 11 Este 16 Este 0 1013.9 0.9 60
2019-11-26 10:00:00 20.9 9 Este 17 Nordeste 0 1013.8 1.3 69
2019-11-26 09:00:00 20.2 2 Sur 11 Nordeste 0 1013.4 1.1 68
2019-11-26 08:00:00 19.3 3 Este 12 Norte 0 1013 0.9 70
2019-11-26 07:00:00 18.6 4 Noroeste 12 Noroeste 0 1012.5 0.2 72
2019-11-26 06:00:00 18 8 Noroeste 16 Oeste 0 1012.3 -0.3 75
2019-11-26 05:00:00 18 9 Oeste 14 Oeste 0 1012.1 -1.1 75
2019-11-26 04:00:00 18.2 9 Oeste 15 Oeste 0 1012.3 -1.2 74
2019-11-26 03:00:00 18.4 9 Oeste 14 Oeste 0 1012.6 -1.5 71
2019-11-26 02:00:00 18.9 8 Noroeste 15 Noroeste 0 1013.2 -1.1 70
2019-11-26 01:00:00 19.5 7 Nordeste 11 Nordeste 0 1013.5 -0.9 69
2019-11-26 00:00:00 19.8 4 Norte 14 Norte 0 1014.1 -0.2 67
2019-11-25 23:00:00 20.3 6 Este 13 Norte 0 1014.3 0.4 69
2019-11-25 22:00:00 20.3 8 Nordeste 14 Norte 0 1014.4 1.1 64
2019-11-25 21:00:00 20.5 6 Nordeste 19 Nordeste 0 1014.3 1.2 65
2019-11-25 20:00:00 20.6 7 Nordeste 17 Nordeste 0 1013.9 0.8 67
2019-11-25 19:00:00 20.6 7 Nordeste 16 Nordeste 0 1013.3 0.2 66
2019-11-25 18:00:00 21 9 Nordeste 24 Nordeste 0 1013.1 -0.3 65
2019-11-25 17:00:00 21.7 10 Nordeste 29 Este 0 1013.1 -0.6 61
2019-11-25 16:00:00 22.9 10 Este 31 Este 0 1013.1 -1.5 55
2019-11-25 15:00:00 22.6 17 Este 32 Este 0 1013.4 -1.9 59
2019-11-25 14:00:00 22.8 18 Este 30 Este 0 1013.7 -2.1 57
2019-11-25 13:00:00 23.1 16 Este 27 Sudeste 0 1014.6 -1 57
2019-11-25 12:00:00 22.8 13 Este 23 Este 0 1015.3 0.4 53
2019-11-25 11:00:00 21.5 12 Este 21 Este 0 1015.8 1.5 57
2019-11-25 10:00:00 20.8 7 Este 17 Este 0 1015.6 1.8 56
2019-11-25 09:00:00 19.1 8 Noroeste 16 Noroeste 0 1014.9 1.5 62
2019-11-25 08:00:00 18.9 4 Nordeste 13 Nordeste 0 1014.3 0.8 63
2019-11-25 07:00:00 19.5 8 Nordeste 18 Este 0 1013.8 0.2 61
2019-11-25 06:00:00 20 8 Nordeste 17 Nordeste 0 1013.4 -0.5 64
2019-11-25 05:00:00 20 5 Noroeste 18 Norte 0 1013.5 -1 60
2019-11-25 04:00:00 20.1 10 Nordeste 21 Nordeste 0 1013.6 -1 61
2019-11-25 03:00:00 20.2 13 Norte 21 Norte 0 1013.9 -1 62
2019-11-25 02:00:00 20.1 11 Norte 26 Norte 0 1014.5 -0.6 58
2019-11-25 01:00:00 19.8 6 Norte 12 Norte 0 1014.6 -0.2 63
2019-11-25 00:00:00 19.4 6 Norte 14 Norte 0 1014.9 0.4 61
2019-11-24 23:00:00 19.7 8 Nordeste 18 Nordeste 0 1015.1 1 59
2019-11-24 22:00:00 20.1 9 Nordeste 21 Este 0 1014.8 1.3 61
2019-11-24 21:00:00 20.4 9 Nordeste 20 Nordeste 0 1014.5 1.1 63
2019-11-24 20:00:00 20.6 8 Nordeste 16 Nordeste 0 1014.1 0.8 65
2019-11-24 19:00:00 20.8 7 Nordeste 23 Nordeste 0 1013.5 0.1 63
2019-11-24 18:00:00 21.3 13 Nordeste 28 Este 0 1013.4 0 61
2019-11-24 17:00:00 22.1 11 Nordeste 28 Nordeste 0 1013.3 -0.5 61
2019-11-24 16:00:00 23.4 12 Nordeste 28 Este 0 1013.4 -1 55
2019-11-24 15:00:00 23.5 12 Nordeste 28 Nordeste 0 1013.4 -2 55
2019-11-24 14:00:00 23.2 13 Este 24 Nordeste 0 1013.8 -2.1 64
2019-11-24 13:00:00 23.3 10 Este 20 Este 0 1014.4 -1.2 65
2019-11-24 12:00:00 22 6 Este 22 Nordeste 0 1015.4 0.5 71
2019-11-24 11:00:00 21.4 13 Este 24 Este 0 1015.9 1.7 76
2019-11-24 10:00:00 20.9 5 Nordeste 19 Este 0 1015.6 2.1 77
2019-11-24 09:00:00 20.8 4 Este 14 Noroeste 0 1014.9 1.7 74
2019-11-24 08:00:00 20.1 12 Noroeste 21 Noroeste 0 1014.2 1 71
2019-11-24 07:00:00 20 10 Norte 17 Norte 0 1013.5 0 70
2019-11-24 06:00:00 20.3 5 Nordeste 18 Norte 0 1013.2 -0.3 74
2019-11-24 05:00:00 20.2 5 Nordeste 18 Nordeste 0 1013.2 -0.6 75
2019-11-24 04:00:00 20.8 6 Noroeste 14 Norte 0 1013.5 -0.7 65
2019-11-24 03:00:00 20.9 4 Nordeste 11 Norte 0 1013.5 -1.1 66
2019-11-24 02:00:00 20.9 5 Noroeste 12 Oeste 0 1013.8 -0.9 68
2019-11-24 01:00:00 20.8 4 Noroeste 11 Norte 0 1014.2 -0.4 67
2019-11-24 00:00:00 21.3 5 Noroeste 13 Norte 0 1014.6 0 66
2019-11-23 23:00:00 21.6 8 Nordeste 20 Nordeste 0 1014.7 0.5 65
2019-11-23 22:00:00 21.2 3 Norte 8 Noroeste 0 1014.6 1 67
2019-11-23 21:00:00 21.3 5 Norte 10 Norte 0 1014.6 1.6 66
2019-11-23 20:00:00 21.7 4 Nordeste 11 Norte 0 1014.2 1.5 66
2019-11-23 19:00:00 22.1 7 Nordeste 12 Nordeste 0 1013.6 1.1 68
2019-11-23 18:00:00 22.6 6 Norte 18 Norte 0 1013 0.6 67
2019-11-23 17:00:00 23.9 6 Norte 25 Noroeste 0 1012.7 -0.2 61
2019-11-23 16:00:00 23.9 15 Oeste 31 Noroeste 0 1012.5 -0.9 63
2019-11-23 15:00:00 25.9 12 Oeste 31 Noroeste 0 1012.4 -1.7 56
2019-11-23 14:00:00 25.4 16 Noroeste 34 Noroeste 0 1012.9 -1.6 58
2019-11-23 13:00:00 25.2 18 Noroeste 35 Noroeste 0 1013.4 -0.9 58
2019-11-23 12:00:00 24.5 14 Noroeste 37 Noroeste 0 1014.1 0.1 58
2019-11-23 11:00:00 23.2 21 Noroeste 37 Noroeste 0 1014.5 1 62
2019-11-23 10:00:00 23 15 Noroeste 31 Oeste 0 1014.3 1.5 64
2019-11-23 09:00:00 23 10 Noroeste 22 Noroeste 0 1014 1.6 66
2019-11-23 08:00:00 21.2 10 Noroeste 16 Noroeste 0 1013.5 1.4 74
2019-11-23 07:00:00 21 2 Sudoeste 19 Oeste 0 1012.8 0.4 79
2019-11-23 06:00:00 21.4 6 Noroeste 24 Noroeste 0 1012.4 -0.1 75
2019-11-23 05:00:00 21.5 7 Oeste 17 Noroeste 0 1012.1 -0.6 75
2019-11-23 04:00:00 21.2 10 Oeste 24 Noroeste 0 1012.4 -0.6 78
2019-11-23 03:00:00 20.9 5 Noroeste 17 Noroeste 0 1012.5 -0.7 75
2019-11-23 02:00:00 21.3 5 Oeste 26 Noroeste 0 1012.7 -0.2 73
2019-11-23 01:00:00 20.9 7 Noroeste 16 Noroeste 0 1013 0.1 75
2019-11-23 00:00:00 20.8 3 Sur 20 Noroeste 0 1013.2 0.4 82
2019-11-22 23:00:00 20.9 8 Sudoeste 19 Oeste 0 1012.9 0.9 80
2019-11-22 22:00:00 21.4 10 Noroeste 22 Oeste 0 1012.9 1.5 69
2019-11-22 21:00:00 21.1 8 Sudoeste 18 Oeste 0 1012.8 1.9 77
2019-11-22 20:00:00 21.2 8 Oeste 15 Sudoeste 0 1012 1.2 70
2019-11-22 19:00:00 21.4 8 Sudoeste 20 Sudoeste 0 1011.4 0.8 77
2019-11-22 18:00:00 21.9 8 Sudoeste 28 Sur 0 1010.9 0.5 75
2019-11-22 17:00:00 23.1 14 Sur 26 Sur 0 1010.8 0.1 70
2019-11-22 16:00:00 23.9 14 Sur 28 Sur 0 1010.6 -0.7 70
2019-11-22 15:00:00 24.8 18 Sur 26 Sur 0 1010.4 -1.4 66
2019-11-22 14:00:00 24.7 9 Sudeste 25 Oeste 0 1010.7 -1.6 66
2019-11-22 13:00:00 24.9 8 Oeste 24 Noroeste 0 1011.3 -0.4 56
2019-11-22 12:00:00 23.7 15 Noroeste 33 Noroeste 0 1011.8 0.6 59
2019-11-22 11:00:00 22.9 12 Noroeste 33 Noroeste 0 1012.3 1.6 63
2019-11-22 10:00:00 22 17 Noroeste 31 Noroeste 0 1011.7 1.7 67
2019-11-22 09:00:00 21.5 14 Noroeste 23 Noroeste 0 1011.2 1.9 71
2019-11-22 08:00:00 20.4 10 Noroeste 23 Noroeste 0 1010.7 1.6 78
2019-11-22 07:00:00 20.3 12 Noroeste 22 Oeste 0 1010 0.7 79
2019-11-22 06:00:00 20.2 13 Noroeste 25 Oeste 0 1009.3 -0.1 79
2019-11-22 05:00:00 20.3 13 Oeste 24 Oeste 0 1009.1 -0.5 79
2019-11-22 04:00:00 20.5 11 Noroeste 24 Noroeste 0 1009.3 -0.5 80
2019-11-22 03:00:00 20.8 4 Oeste 21 Oeste 0 1009.4 -0.7 72
2019-11-22 02:00:00 20.5 4 Sudoeste 17 Oeste 0 1009.6 -0.4 66
2019-11-22 01:00:00 20.1 5 Sudoeste 9 Sudoeste 0 1009.8 -0.2 71
2019-11-22 00:00:00 20.6 8 Oeste 15 Noroeste 0 1010.1 0.1 76
2019-11-21 23:00:00 20.5 6 Sudoeste 18 Oeste 0 1010 0.4 74
2019-11-21 22:00:00 21.2 10 Oeste 21 Oeste 0 1010 0.7 74
2019-11-21 21:00:00 20.4 0 Calma 5 Norte 0 1010 0.9 73
2019-11-21 20:00:00 20.5 3 Este 8 Sudeste 0 1009.6 0.7 71
2019-11-21 19:00:00 21 5 Sudeste 8 Sudeste 0 1009.3 0.4 72
2019-11-21 18:00:00 21.2 5 Sudeste 10 Sudeste 0 1009.1 0.1 69
2019-11-21 17:00:00 21.6 5 Sudeste 13 Sudeste 0 1008.9 -0.2 68
2019-11-21 16:00:00 23 8 Sudeste 14 Sudeste 0 1008.9 -1.3 66
2019-11-21 15:00:00 22.5 11 Sudeste 23 Sudeste 0 1009 -1.8 65
2019-11-21 14:00:00 23.8 12 Este 24 Norte 0 1009.1 -2.1 61
2019-11-21 13:00:00 23.4 10 Este 17 Este 0 1010.2 -1 59
2019-11-21 12:00:00 23 7 Sur 18 Sur 0 1010.8 -0.1 63
2019-11-21 11:00:00 22.4 7 Sur 23 Oeste 0 1011.2 0.7 68
2019-11-21 10:00:00 21.6 6 Sur 15 Sur 0 1011.2 1.1 66
2019-11-21 09:00:00 20.9 9 Oeste 23 Noroeste 0 1010.9 1.3 66
2019-11-21 08:00:00 19.3 13 Noroeste 22 Noroeste 0 1010.5 0.6 72
2019-11-21 07:00:00 -- -- -- -- -- -- -- -- --
2019-11-21 06:00:00 -- -- -- -- -- -- -- -- --
2019-11-21 05:00:00 -- -- -- -- -- -- -- -- --
2019-11-21 04:00:00 -- -- -- -- -- -- -- -- --
2019-11-21 03:00:00 -- -- -- -- -- -- -- -- --
2019-11-21 02:00:00 -- -- -- -- -- -- -- -- --
2019-11-21 01:00:00 -- -- -- -- -- -- -- -- --
2019-11-21 00:00:00 -- -- -- -- -- -- -- -- --
2019-11-20 23:00:00 -- -- -- -- -- -- -- -- --
2019-11-20 22:00:00 -- -- -- -- -- -- -- -- --
2019-11-20 21:00:00 -- -- -- -- -- -- -- -- --
2019-11-20 20:00:00 -- -- -- -- -- -- -- -- --
2019-11-20 19:00:00 -- -- -- -- -- -- -- -- --
2019-11-20 18:00:00 20.7 5 Este 10 Sudeste 0 1010.8 0.2 68
2019-11-20 17:00:00 21.3 4 Sudeste 14 Sudeste 0 1010.4 -0.7 67
2019-11-20 16:00:00 22.3 7 Sur 15 Sudeste 0 1010.5 -1.3 66
2019-11-20 15:00:00 23 8 Sur 14 Sur 0 1010.6 -1.9 64
2019-11-20 14:00:00 23 6 Sudeste 17 Sudeste 0 1011.1 -1.9 65
2019-11-20 13:00:00 23.1 6 Sur 18 Sudeste 0 1011.8 -1.4 63
2019-11-20 12:00:00 22.3 6 Sur 19 Sur 0 1012.5 -0.3 66
2019-11-20 11:00:00 21.4 9 Sur 21 Sur 0 1013 0.7 68
2019-11-20 10:00:00 20.9 13 Sur 17 Sur 0 1013.2 1.1 68
2019-11-20 09:00:00 20.1 6 Oeste 13 Oeste 0 1012.8 0.7 64
2019-11-20 08:00:00 18 10 Oeste 13 Oeste 0 1012.3 0.2 68
2019-11-20 07:00:00 18.1 9 Oeste 17 Oeste 0 1012.1 -0.2 68
2019-11-20 06:00:00 18.1 8 Oeste 14 Noroeste 0 1012.1 -0.5 67
2019-11-20 05:00:00 18 9 Oeste 18 Noroeste 0 1012.1 -0.6 67
2019-11-20 04:00:00 18.5 8 Oeste 17 Oeste 0 1012.3 -0.6 65
2019-11-20 03:00:00 18.4 10 Noroeste 24 Noroeste 0 1012.6 -0.7 61
2019-11-20 02:00:00 18.7 14 Noroeste 23 Oeste 0 1012.7 -0.9 56
2019-11-20 01:00:00 18.7 7 Noroeste 19 Noroeste 0 1012.9 -0.8 55
2019-11-20 00:00:00 18.8 11 Oeste 20 Noroeste 0 1013.3 -0.2 56
2019-11-19 23:00:00 18.8 10 Oeste 21 Noroeste 0 1013.6 0.3 63
2019-11-19 22:00:00 19.2 12 Oeste 27 Oeste 0 1013.7 0.8 68
2019-11-19 21:00:00 19.4 10 Oeste 23 Oeste 0 1013.5 0.7 67
2019-11-19 20:00:00 19.5 11 Oeste 23 Noroeste 0 1013.3 0.5 67
2019-11-19 19:00:00 19.9 11 Noroeste 26 Oeste 0 1012.9 0.2 65
2019-11-19 18:00:00 20.6 12 Noroeste 26 Noroeste 0 1012.8 0.1 61
2019-11-19 17:00:00 21.4 14 Noroeste 33 Oeste 0 1012.8 -0.5 57
2019-11-19 16:00:00 23.5 15 Noroeste 38 Oeste 0 1012.7 -1.3 50
2019-11-19 15:00:00 23.8 17 Noroeste 36 Oeste 0 1012.7 -2.1 50
2019-11-19 14:00:00 24 18 Noroeste 33 Noroeste 0 1013.3 -2.2 49
2019-11-19 13:00:00 23.5 17 Noroeste 34 Noroeste 0 1014 -1.4 49
2019-11-19 12:00:00 22.8 17 Noroeste 36 Noroeste 0 1014.8 -0.2 52
2019-11-19 11:00:00 21.5 19 Noroeste 41 Noroeste 0 1015.5 0.8 57
2019-11-19 10:00:00 20.7 18 Noroeste 33 Noroeste 0 1015.4 0.6 61
2019-11-19 09:00:00 20.3 14 Noroeste 36 Noroeste 0 1015 0.6 64
2019-11-19 08:00:00 18.7 20 Oeste 30 Oeste 0 1014.7 0.3 70
2019-11-19 07:00:00 18.5 12 Noroeste 26 Noroeste 0 1014.8 0.2 71
2019-11-19 06:00:00 18 14 Oeste 20 Oeste 0 1014.4 -0.4 72
2019-11-19 05:00:00 18.1 5 Sudoeste 20 Noroeste 0 1014.4 -0.8 72
2019-11-19 04:00:00 18.6 7 Oeste 22 Noroeste 0 1014.6 -1.1 69
2019-11-19 03:00:00 19 9 Noroeste 17 Noroeste 0 1014.8 -1.5 66
2019-11-19 02:00:00 18.5 4 Oeste 6 Oeste 0 1015.2 -1.1 68
2019-11-19 01:00:00 19.1 4 Norte 10 Norte 0 1015.7 -0.6 66
2019-11-19 00:00:00 19.4 6 Norte 13 Noroeste 0 1016.3 0.1 62
2019-11-18 23:00:00 19.8 8 Norte 15 Noroeste 0 1016.3 0.5 63
2019-11-18 22:00:00 20 5 Norte 14 Norte 0 1016.3 0.6 63
2019-11-18 21:00:00 19.7 9 Norte 15 Norte 0 1016.2 0.6 63
2019-11-18 20:00:00 19.6 6 Norte 17 Norte 0 1015.8 0.4 61
2019-11-18 19:00:00 19.8 10 Norte 20 Norte 0 1015.7 0.4 61
2019-11-18 18:00:00 20.3 6 Nordeste 17 Norte 0 1015.6 0.4 65
2019-11-18 17:00:00 20.8 8 Norte 21 Norte 0 1015.4 -0.1 62
2019-11-18 16:00:00 20.8 13 Norte 24 Este 0 1015.3 -0.9 60
2019-11-18 15:00:00 20.9 14 Este 28 Este 0 1015.2 -1.7 63
2019-11-18 14:00:00 21.2 13 Este 30 Este 0 1015.5 -2 60
2019-11-18 13:00:00 21.3 16 Este 29 Este 0 1016.2 -1.4 59
2019-11-18 12:00:00 21.7 14 Este 30 Este 0 1016.9 -0.3 57
2019-11-18 11:00:00 21.1 13 Este 28 Este 0 1017.5 0.8 60
2019-11-18 10:00:00 21.3 16 Este 30 Este 0 1017.6 1.4 57
2019-11-18 09:00:00 21.2 6 Norte 16 Norte 0 1017.2 1.3 57
2019-11-18 08:00:00 19.2 4 Norte 14 Norte 0 1016.7 0.8 63
2019-11-18 07:00:00 19.1 6 Norte 11 Norte 0 1016.2 0.4 61
2019-11-18 06:00:00 19 8 Norte 17 Norte 0 1015.9 -0.2 57
2019-11-18 05:00:00 18.9 8 Norte 17 Norte 0 1015.9 -0.3 58
2019-11-18 04:00:00 18.5 4 Norte 9 Norte 0 1015.8 -0.8 63
2019-11-18 03:00:00 18.7 4 Norte 14 Nordeste 0 1016.1 -0.8 61
2019-11-18 02:00:00 18.9 6 Nordeste 13 Norte 0 1016.2 -0.8 61
2019-11-18 01:00:00 19.3 4 Nordeste 14 Nordeste 0 1016.6 -0.4 60
2019-11-18 00:00:00 19.3 8 Nordeste 22 Norte 0 1016.9 0.1 57
2019-11-17 23:00:00 19.4 8 Nordeste 21 Nordeste 0 1017 0.7 56
2019-11-17 22:00:00 19.4 10 Nordeste 28 Nordeste 0 1017 1.1 55
2019-11-17 21:00:00 19.4 9 Nordeste 23 Nordeste 0 1016.8 1.2 57
2019-11-17 20:00:00 19.4 9 Norte 24 Norte 0 1016.3 1 58
2019-11-17 19:00:00 19.4 7 Nordeste 20 Norte 0 1015.9 0.6 64
2019-11-17 18:00:00 19.7 8 Nordeste 20 Nordeste 0 1015.6 0.1 58
2019-11-17 17:00:00 20.1 8 Nordeste 22 Nordeste 0 1015.3 -0.9 57
2019-11-17 16:00:00 20.2 11 Este 25 Nordeste 0 1015.3 -1.4 58
2019-11-17 15:00:00 19.7 12 Norte 19 Nordeste 0 1015.5 -1.9 62
2019-11-17 14:00:00 19.5 12 Nordeste 28 Este 0 1016.2 -1.7 66
2019-11-17 13:00:00 20.3 13 Este 32 Este 0 1016.7 -1 57
2019-11-17 12:00:00 20.8 10 Nordeste 24 Nordeste 0 1017.4 -0.2 52
2019-11-17 11:00:00 20.3 12 Nordeste 22 Nordeste 0 1017.9 0.8 58
2019-11-17 10:00:00 18.9 8 Noroeste 17 Norte 0 1017.7 1.1 66
2019-11-17 09:00:00 17.7 5 Norte 18 Norte 0 1017.6 1.6 76
2019-11-17 08:00:00 17.7 4 Nordeste 15 Este 0 1017.1 1.3 76
2019-11-17 07:00:00 17.7 3 Este 13 Norte 0 1016.6 0.6 74
2019-11-17 06:00:00 17.7 6 Nordeste 21 Nordeste 0 1016 -0.1 75
2019-11-17 05:00:00 17 2 Nordeste 10 Oeste 0 1015.8 0 82
2019-11-17 04:00:00 17.5 5 Norte 17 Nordeste 0 1016 0.1 78
2019-11-17 03:00:00 18.6 6 Este 21 Este 0 1016.1 0.3 69
2019-11-17 02:00:00 18 4 Noroeste 21 Nordeste 0 1015.8 0.1 72
2019-11-17 01:00:00 19.2 10 Nordeste 27 Nordeste 0 1015.9 0.2 61
2019-11-17 00:00:00 19.4 12 Nordeste 30 Nordeste 0 1015.8 0.4 60
2019-11-16 23:00:00 19.4 7 Norte 28 Norte 0 1015.7 0.5 61
2019-11-16 22:00:00 19.6 14 Nordeste 28 Norte 0 1015.7 1.1 61
2019-11-16 21:00:00 19.6 15 Norte 32 Norte 0 1015.4 1.2 59
2019-11-16 20:00:00 19.7 7 Norte 28 Norte 0 1015.2 1 59
2019-11-16 19:00:00 19.7 9 Nordeste 27 Norte 0 1014.6 0.8 62
2019-11-16 18:00:00 19.9 8 Norte 32 Norte 0 1014.2 0.3 57
2019-11-16 17:00:00 20.5 14 Norte 37 Noroeste 0 1014.2 0 54
2019-11-16 16:00:00 21.1 16 Norte 48 Norte 0 1013.8 -1.2 53
2019-11-16 15:00:00 20.9 17 Norte 31 Norte 0 1013.9 -1.4 56
2019-11-16 14:00:00 20.9 14 Norte 41 Norte 0 1014.2 -1.7 55
2019-11-16 13:00:00 20.4 15 Norte 38 Nordeste 0 1015 -1 59
2019-11-16 12:00:00 21.3 21 Norte 46 Norte 0 1015.3 -0.1 49
2019-11-16 11:00:00 20.8 15 Norte 45 Norte 0 1015.9 1.3 49
2019-11-16 10:00:00 20.5 23 Norte 49 Norte 0 1016 2 49
2019-11-16 09:00:00 20.1 8 Norte 23 Norte 0 1015.4 1.9 53
2019-11-16 08:00:00 18.7 10 Norte 31 Noroeste 0 1014.6 1.2 57
2019-11-16 07:00:00 18.4 13 Norte 24 Norte 0 1014 0.6 61
2019-11-16 06:00:00 18.2 15 Norte 30 Norte 0 1013.5 -0.1 69
2019-11-16 05:00:00 18.2 13 Norte 36 Nordeste 0.2 1013.4 -0.2 68
2019-11-16 04:00:00 18.6 14 Norte 33 Norte 0 1013.4 -0.5 61
2019-11-16 03:00:00 18.3 14 Norte 36 Norte 0.2 1013.6 -0.3 66
2019-11-16 02:00:00 17.5 12 Norte 22 Norte 0.2 1013.6 -0.2 76
2019-11-16 01:00:00 17.2 6 Norte 26 Norte 1.2 1013.9 0.3 84
2019-11-16 00:00:00 19 12 Norte 28 Norte 0 1013.9 0.6 63
2019-11-15 23:00:00 18.9 11 Norte 30 Norte 0 1013.8 1 61
2019-11-15 22:00:00 18.5 11 Norte 32 Norte 0 1013.6 1.3 70
2019-11-15 21:00:00 19.1 13 Norte 31 Norte 0 1013.3 1.4 63
2019-11-15 20:00:00 19.2 11 Norte 32 Norte 0 1012.8 0.8 61
2019-11-15 19:00:00 19.6 8 Norte 23 Nordeste 0 1012.3 0.4 58
2019-11-15 18:00:00 19.8 10 Norte 27 Norte 0 1011.9 -0.1 56
2019-11-15 17:00:00 20.3 9 Nordeste 30 Norte 0 1012 -0.5 56
2019-11-15 16:00:00 21.2 20 Norte 36 Norte 0 1011.9 -1.1 53
2019-11-15 15:00:00 20.2 12 Norte 23 Noroeste 0.2 1012 -1.8 61
2019-11-15 14:00:00 19.6 12 Norte 35 Norte 0 1012.5 -1.3 72
2019-11-15 13:00:00 19.5 16 Norte 32 Nordeste 0.4 1013 -0.7 75
2019-11-15 12:00:00 19.2 9 Norte 46 Norte 0 1013.8 0.5 74
2019-11-15 11:00:00 20.1 16 Norte 33 Norte 0.2 1013.8 1.2 68
2019-11-15 10:00:00 18.7 4 Norte 31 Norte 0.2 1013.7 1.7 83
2019-11-15 09:00:00 19 4 Norte 23 Noroeste 0.6 1013.3 1.7 77
2019-11-15 08:00:00 19.5 9 Norte 27 Norte 0 1012.6 1.1 70
2019-11-15 07:00:00 19.4 12 Nordeste 29 Norte 0.4 1012 0.1 73
2019-11-15 06:00:00 19.3 19 Norte 41 Norte 0.2 1011.6 -0.8 69
2019-11-15 05:00:00 20.4 8 Norte 33 Norte 0 1011.5 -1.4 62
2019-11-15 04:00:00 20.3 13 Norte 26 Norte 0 1011.9 -1.1 62
2019-11-15 03:00:00 20.3 11 Nordeste 28 Nordeste 0 1012.4 -0.8 59
2019-11-15 02:00:00 20.2 9 Norte 31 Nordeste 0 1012.9 -0.6 59
2019-11-15 01:00:00 20.5 10 Norte 32 Norte 0 1013 -0.4 62
2019-11-15 00:00:00 20.5 14 Nordeste 32 Norte 0 1013.2 0.2 60